Time;durP1;ratioP1;P1;durP2;ratioP2;P2;SDS_P1;SDS_P2;PMS_P1;PMS_P2;Temp;Humidity;BMP_temperature;BMP_pressure;BME280_temperature;BME280_humidity;BME280_pressure;Samples;Min_cycle;Max_cycle;Signal;HPM_P1;HPM_P2
2023/09/17 00:02:17;;;;;;;6.00;5.40;;;;;;;;;;5010805;28;20219;-79
2023/09/17 00:04:44;;;;;;;6.07;5.38;;;;;;;;;;5014890;28;20215;-77
2023/09/17 00:07:12;;;;;;;4.65;4.25;;;;;;;;;;5016492;28;20204;-78
2023/09/17 00:09:40;;;;;;;5.93;5.20;;;;;;;;;;5011917;28;20210;-77
2023/09/17 00:12:07;;;;;;;5.10;4.65;;;;;;;;;;4993562;28;20219;-79
2023/09/17 00:14:35;;;;;;;6.72;4.78;;;;;;;;;;5013863;28;20204;-80
2023/09/17 00:17:02;;;;;;;4.85;4.43;;;;;;;;;;5012171;28;20200;-77
2023/09/17 00:19:32;;;;;;;5.28;4.68;;;;;;;;;;5014769;28;20253;-79
2023/09/17 00:22:00;;;;;;;5.30;4.80;;;;;;;;;;5016206;28;20228;-79
2023/09/17 00:24:28;;;;;;;5.22;4.63;;;;;;;;;;5014035;28;20207;-80
2023/09/17 00:26:56;;;;;;;4.90;4.50;;;;;;;;;;4996927;28;20200;-78
2023/09/17 00:29:25;;;;;;;4.88;4.30;;;;;;;;;;5010176;28;20218;-79
2023/09/17 00:31:52;;;;;;;4.90;4.50;;;;;;;;;;4994428;28;20220;-79
2023/09/17 00:34:19;;;;;;;7.03;4.90;;;;;;;;;;5013530;28;20270;-79
2023/09/17 00:36:47;;;;;;;6.43;5.03;;;;;;;;;;5013838;28;20254;-78
2023/09/17 00:39:14;;;;;;;5.35;4.75;;;;;;;;;;5013119;28;20227;-79
2023/09/17 00:41:42;;;;;;;5.38;4.75;;;;;;;;;;4991011;28;20227;-77
2023/09/17 00:44:09;;;;;;;4.95;4.55;;;;;;;;;;4991731;28;20207;-77
2023/09/17 00:46:37;;;;;;;4.57;4.18;;;;;;;;;;4996234;28;20219;-79
2023/09/17 00:49:12;;;;;;;5.72;4.60;;;;;;;;;;4996047;28;20238;-77
2023/09/17 00:51:43;;;;;;;4.70;4.30;;;;;;;;;;4998133;28;20254;-81
2023/09/17 00:54:11;;;;;;;4.97;4.57;;;;;;;;;;5014234;28;20218;-79
2023/09/17 00:56:39;;;;;;;5.38;4.88;;;;;;;;;;4994683;28;20207;-79
2023/09/17 00:59:06;;;;;;;4.43;4.10;;;;;;;;;;5015123;28;20232;-79
2023/09/17 01:01:34;;;;;;;4.45;4.15;;;;;;;;;;5013273;28;20207;-77
2023/09/17 01:04:03;;;;;;;5.78;5.18;;;;;;;;;;5011377;28;20208;-78
2023/09/17 01:06:31;;;;;;;5.88;5.30;;;;;;;;;;4997093;28;20214;-79
2023/09/17 01:08:58;;;;;;;4.72;4.32;;;;;;;;;;5013604;28;20212;-80
2023/09/17 01:11:26;;;;;;;6.35;5.10;;;;;;;;;;5015058;28;20639;-79
2023/09/17 01:14:16;;;;;;;5.55;5.05;;;;;;;;;;5001143;28;20208;-79
2023/09/17 01:16:42;;;;;;;5.68;4.78;;;;;;;;;;5011761;28;20207;-78
2023/09/17 01:19:17;;;;;;;5.60;5.10;;;;;;;;;;5009471;28;20666;-79
2023/09/17 01:21:52;;;;;;;5.35;4.95;;;;;;;;;;5011692;28;20234;-81
2023/09/17 01:24:26;;;;;;;5.30;4.80;;;;;;;;;;5011603;28;20213;-77
2023/09/17 01:26:59;;;;;;;6.32;5.20;;;;;;;;;;5012589;28;20199;-79
2023/09/17 01:29:30;;;;;;;5.30;4.80;;;;;;;;;;4997389;28;20215;-80
2023/09/17 01:31:58;;;;;;;5.05;4.20;;;;;;;;;;5015253;28;20242;-79
2023/09/17 01:34:26;;;;;;;5.40;4.45;;;;;;;;;;5015691;28;20207;-78
2023/09/17 01:36:59;;;;;;;4.88;4.38;;;;;;;;;;5011832;28;20298;-78
2023/09/17 01:39:28;;;;;;;5.07;4.57;;;;;;;;;;5012094;28;20687;-79
2023/09/17 01:41:58;;;;;;;4.72;4.32;;;;;;;;;;5010728;28;20234;-78
2023/09/17 01:44:26;;;;;;;5.13;4.72;;;;;;;;;;5012020;28;20597;-81
2023/09/17 01:46:53;;;;;;;5.82;4.57;;;;;;;;;;5014407;28;20195;-81
2023/09/17 01:49:21;;;;;;;5.70;4.70;;;;;;;;;;5013939;28;20211;-80
2023/09/17 01:51:48;;;;;;;4.75;4.45;;;;;;;;;;4992853;28;20772;-78
2023/09/17 01:54:16;;;;;;;5.72;5.22;;;;;;;;;;5010545;28;20218;-78
2023/09/17 01:56:43;;;;;;;6.32;5.05;;;;;;;;;;5010413;28;20203;-80
2023/09/17 01:59:12;;;;;;;5.43;4.88;;;;;;;;;;5006375;28;20615;-77
2023/09/17 02:01:40;;;;;;;6.60;6.00;;;;;;;;;;4994166;28;20238;-80
2023/09/17 02:04:10;;;;;;;7.30;6.60;;;;;;;;;;5006646;28;20682;-81
2023/09/17 02:06:37;;;;;;;12.18;9.98;;;;;;;;;;5012496;28;20655;-78
2023/09/17 02:09:05;;;;;;;7.45;5.63;;;;;;;;;;5012455;28;20290;-79
2023/09/17 02:11:33;;;;;;;5.15;4.75;;;;;;;;;;5011876;28;20215;-80
2023/09/17 02:14:00;;;;;;;6.75;6.03;;;;;;;;;;5010253;28;20208;-79
2023/09/17 02:16:31;;;;;;;5.80;5.30;;;;;;;;;;5012757;28;20551;-80
2023/09/17 02:18:59;;;;;;;5.80;5.30;;;;;;;;;;4992704;28;20220;-78
2023/09/17 02:21:26;;;;;;;5.97;5.50;;;;;;;;;;5013026;28;20582;-80
2023/09/17 02:23:54;;;;;;;6.85;5.68;;;;;;;;;;5010362;28;20570;-80
2023/09/17 02:26:22;;;;;;;5.75;5.05;;;;;;;;;;5011345;28;20246;-79
2023/09/17 02:28:50;;;;;;;8.27;5.45;;;;;;;;;;5012903;28;20234;-79
2023/09/17 02:31:17;;;;;;;5.88;5.32;;;;;;;;;;5012283;28;20218;-80
2023/09/17 02:33:44;;;;;;;5.57;5.10;;;;;;;;;;5012331;28;20207;-80
2023/09/17 02:36:13;;;;;;;5.82;5.22;;;;;;;;;;5006675;28;20622;-80
2023/09/17 02:38:43;;;;;;;5.65;5.15;;;;;;;;;;5000473;28;20223;-80
2023/09/17 02:41:11;;;;;;;5.88;5.38;;;;;;;;;;5006322;28;20234;-80
2023/09/17 02:43:38;;;;;;;5.30;4.85;;;;;;;;;;5011557;28;20231;-80
2023/09/17 02:46:06;;;;;;;5.50;5.00;;;;;;;;;;5012626;28;20203;-81
2023/09/17 02:48:34;;;;;;;5.53;5.03;;;;;;;;;;5012597;28;20290;-80
2023/09/17 02:51:02;;;;;;;6.30;5.20;;;;;;;;;;4992114;28;20207;-79
2023/09/17 02:53:30;;;;;;;5.22;4.80;;;;;;;;;;4993787;28;20235;-79
2023/09/17 02:55:57;;;;;;;5.28;4.78;;;;;;;;;;5013107;28;20207;-80
2023/09/17 02:58:25;;;;;;;5.20;4.70;;;;;;;;;;5017069;28;20633;-80
2023/09/17 03:00:52;;;;;;;4.95;4.55;;;;;;;;;;5014645;28;20273;-79
2023/09/17 03:03:19;;;;;;;5.28;4.88;;;;;;;;;;4993659;28;20234;-80
2023/09/17 03:05:47;;;;;;;4.93;4.50;;;;;;;;;;4992660;28;20208;-79
2023/09/17 03:08:15;;;;;;;5.90;5.30;;;;;;;;;;5015900;28;20203;-79
2023/09/17 03:10:42;;;;;;;5.18;4.68;;;;;;;;;;5016386;28;20207;-78
2023/09/17 03:13:11;;;;;;;5.30;4.80;;;;;;;;;;5015726;28;20223;-80
2023/09/17 03:15:38;;;;;;;6.03;5.22;;;;;;;;;;4998497;28;20397;-80
2023/09/17 03:18:06;;;;;;;5.57;5.13;;;;;;;;;;5015748;28;20196;-79
2023/09/17 03:20:33;;;;;;;5.85;5.35;;;;;;;;;;4998683;28;20208;-81
2023/09/17 03:23:04;;;;;;;5.72;5.22;;;;;;;;;;5014663;28;20223;-80
2023/09/17 03:25:32;;;;;;;6.22;4.72;;;;;;;;;;5015137;28;20206;-81
2023/09/17 03:27:59;;;;;;;5.00;4.60;;;;;;;;;;5013015;28;20231;-79
2023/09/17 03:30:27;;;;;;;5.95;4.75;;;;;;;;;;5003500;28;20215;-81
2023/09/17 03:32:55;;;;;;;5.85;5.35;;;;;;;;;;5015873;28;20231;-78
2023/09/17 03:35:31;;;;;;;5.50;4.97;;;;;;;;;;5015767;28;20713;-79
2023/09/17 03:37:58;;;;;;;5.78;5.28;;;;;;;;;;5014017;28;20290;-81
2023/09/17 03:40:26;;;;;;;5.35;4.93;;;;;;;;;;5011352;28;20245;-80
2023/09/17 03:42:54;;;;;;;5.70;4.90;;;;;;;;;;5012819;28;20247;-79
2023/09/17 03:45:21;;;;;;;4.97;4.57;;;;;;;;;;4997898;28;20766;-81
2023/09/17 03:47:48;;;;;;;5.70;4.85;;;;;;;;;;5011728;28;20237;-81
2023/09/17 03:50:16;;;;;;;5.13;4.70;;;;;;;;;;5012707;28;20283;-78
2023/09/17 03:52:48;;;;;;;5.65;5.15;;;;;;;;;;5014939;28;20223;-80
2023/09/17 03:55:16;;;;;;;5.85;5.35;;;;;;;;;;5016905;28;20211;-80
2023/09/17 03:57:44;;;;;;;5.88;4.97;;;;;;;;;;5011834;28;20204;-81
2023/09/17 04:00:12;;;;;;;5.53;4.68;;;;;;;;;;5015628;28;20238;-81
2023/09/17 04:02:40;;;;;;;5.22;4.72;;;;;;;;;;5016250;28;20242;-80
2023/09/17 04:05:09;;;;;;;9.00;6.03;;;;;;;;;;5006895;28;20200;-80
2023/09/17 04:07:38;;;;;;;5.57;5.07;;;;;;;;;;5015175;28;20235;-80
2023/09/17 04:10:06;;;;;;;5.00;4.50;;;;;;;;;;5007935;28;20625;-80
2023/09/17 04:12:37;;;;;;;5.38;4.90;;;;;;;;;;4991780;28;20228;-80
2023/09/17 04:15:08;;;;;;;5.43;4.88;;;;;;;;;;5015517;28;20208;-81
2023/09/17 04:17:37;;;;;;;5.55;5.03;;;;;;;;;;5016758;28;20299;-80
2023/09/17 04:20:09;;;;;;;5.10;4.47;;;;;;;;;;5018972;28;20281;-81
2023/09/17 04:22:37;;;;;;;5.10;4.60;;;;;;;;;;5016539;28;20224;-80
2023/09/17 04:25:09;;;;;;;5.40;4.93;;;;;;;;;;5009423;28;20242;-80
2023/09/17 04:27:38;;;;;;;5.28;4.80;;;;;;;;;;4991996;28;20622;-79
2023/09/17 04:30:06;;;;;;;5.78;5.13;;;;;;;;;;4998592;28;20206;-82
2023/09/17 04:32:38;;;;;;;5.68;5.18;;;;;;;;;;5015472;28;20765;-81
2023/09/17 04:35:07;;;;;;;6.28;5.50;;;;;;;;;;5014892;28;20238;-81
2023/09/17 04:37:35;;;;;;;5.60;5.10;;;;;;;;;;5021289;28;20214;-80
2023/09/17 04:40:08;;;;;;;5.28;4.78;;;;;;;;;;5015121;28;20666;-79
2023/09/17 04:42:36;;;;;;;4.85;4.40;;;;;;;;;;5011127;28;20334;-80
2023/09/17 04:45:06;;;;;;;5.03;4.63;;;;;;;;;;5016879;28;20224;-81
2023/09/17 04:47:34;;;;;;;6.55;4.93;;;;;;;;;;5014815;28;20200;-82
2023/09/17 04:50:02;;;;;;;5.55;4.80;;;;;;;;;;4987856;28;20211;-80
2023/09/17 04:52:30;;;;;;;5.13;4.63;;;;;;;;;;4998274;28;20227;-80
2023/09/17 04:54:57;;;;;;;5.22;4.80;;;;;;;;;;5018059;28;20208;-79
2023/09/17 04:57:24;;;;;;;5.38;4.88;;;;;;;;;;4995824;28;20207;-80
2023/09/17 04:59:52;;;;;;;4.82;4.43;;;;;;;;;;4988707;28;20603;-80
2023/09/17 05:02:21;;;;;;;4.90;4.50;;;;;;;;;;4994432;28;20224;-79
2023/09/17 05:04:49;;;;;;;4.85;4.45;;;;;;;;;;5005297;28;20306;-78
2023/09/17 05:07:16;;;;;;;4.78;4.38;;;;;;;;;;4995348;28;20215;-80
2023/09/17 05:09:43;;;;;;;4.75;4.35;;;;;;;;;;5013010;28;20211;-78
2023/09/17 05:12:11;;;;;;;5.95;4.80;;;;;;;;;;5018943;28;20262;-81
2023/09/17 05:14:38;;;;;;;4.95;4.55;;;;;;;;;;5013801;28;20221;-80
2023/09/17 05:17:09;;;;;;;5.15;4.75;;;;;;;;;;5005819;28;20208;-79
2023/09/17 05:19:38;;;;;;;5.07;4.53;;;;;;;;;;5012759;28;20223;-79
2023/09/17 05:22:05;;;;;;;4.82;4.43;;;;;;;;;;5012130;28;20606;-78
2023/09/17 05:24:32;;;;;;;5.38;4.88;;;;;;;;;;4988110;28;20200;-81
2023/09/17 05:27:00;;;;;;;6.15;4.22;;;;;;;;;;5012445;28;20211;-78
2023/09/17 05:29:28;;;;;;;5.20;4.72;;;;;;;;;;5012082;28;20212;-81
2023/09/17 05:31:55;;;;;;;5.30;4.80;;;;;;;;;;5013351;28;20245;-80
2023/09/17 05:34:23;;;;;;;6.68;5.60;;;;;;;;;;5007922;28;20212;-81
2023/09/17 05:36:51;;;;;;;5.32;4.68;;;;;;;;;;5011698;28;20211;-78
2023/09/17 05:39:18;;;;;;;4.80;4.40;;;;;;;;;;5013040;28;20231;-79
2023/09/17 05:41:45;;;;;;;5.50;4.32;;;;;;;;;;4994792;28;20230;-81
2023/09/17 05:44:13;;;;;;;4.32;4.03;;;;;;;;;;5013118;28;20658;-79
2023/09/17 05:46:40;;;;;;;4.75;4.35;;;;;;;;;;5013023;28;20570;-81
2023/09/17 05:49:08;;;;;;;4.35;3.90;;;;;;;;;;4994896;28;20235;-80
2023/09/17 05:51:36;;;;;;;4.45;3.90;;;;;;;;;;5013431;28;20208;-80
2023/09/17 05:54:03;;;;;;;4.68;4.28;;;;;;;;;;5011384;28;20797;-80
2023/09/17 05:56:30;;;;;;;6.07;3.90;;;;;;;;;;5004111;28;20216;-80
2023/09/17 05:58:58;;;;;;;3.67;3.38;;;;;;;;;;5011147;28;20211;-81
2023/09/17 06:01:25;;;;;;;4.15;3.83;;;;;;;;;;5012120;28;20203;-81
2023/09/17 06:03:53;;;;;;;3.95;3.50;;;;;;;;;;5012134;28;20286;-79
2023/09/17 06:06:21;;;;;;;4.22;3.60;;;;;;;;;;5012414;28;20233;-81
2023/09/17 06:08:50;;;;;;;4.30;3.97;;;;;;;;;;4994392;28;20257;-80
2023/09/17 06:11:18;;;;;;;4.75;3.78;;;;;;;;;;4999589;28;20204;-81
2023/09/17 06:13:45;;;;;;;4.53;4.10;;;;;;;;;;5010234;28;20695;-80
2023/09/17 06:16:13;;;;;;;3.97;3.55;;;;;;;;;;4995065;28;20211;-81
2023/09/17 06:18:40;;;;;;;3.80;3.50;;;;;;;;;;5010133;28;20239;-80
2023/09/17 06:21:08;;;;;;;7.55;3.75;;;;;;;;;;5005219;28;20306;-79
2023/09/17 06:23:35;;;;;;;4.57;3.55;;;;;;;;;;5005011;28;20234;-81
2023/09/17 06:26:07;;;;;;;3.72;3.42;;;;;;;;;;5008044;28;20614;-79
2023/09/17 06:28:36;;;;;;;3.78;3.47;;;;;;;;;;5000512;28;20203;-79
2023/09/17 06:31:04;;;;;;;3.33;3.05;;;;;;;;;;5009185;28;20219;-79
2023/09/17 06:33:31;;;;;;;3.60;3.28;;;;;;;;;;5009614;28;20227;-80
2023/09/17 06:35:59;;;;;;;4.35;3.47;;;;;;;;;;4993193;28;20215;-80
2023/09/17 06:38:26;;;;;;;4.72;3.22;;;;;;;;;;5012185;28;20223;-79
2023/09/17 06:40:53;;;;;;;3.95;3.20;;;;;;;;;;5007068;28;20227;-81
2023/09/17 06:43:21;;;;;;;5.80;4.30;;;;;;;;;;4991544;28;20282;-82
2023/09/17 06:45:48;;;;;;;4.68;3.40;;;;;;;;;;4996738;28;20215;-81
2023/09/17 06:48:16;;;;;;;5.25;3.20;;;;;;;;;;5000740;28;20199;-81
2023/09/17 06:50:43;;;;;;;4.90;3.22;;;;;;;;;;4995164;28;20215;-81
2023/09/17 06:53:11;;;;;;;3.67;3.05;;;;;;;;;;5016881;28;20243;-81
2023/09/17 06:55:38;;;;;;;3.33;3.03;;;;;;;;;;5003839;28;20668;-80
2023/09/17 06:58:05;;;;;;;3.85;3.45;;;;;;;;;;5006038;28;20215;-81
2023/09/17 07:00:33;;;;;;;5.20;3.25;;;;;;;;;;5007272;28;20236;-82
2023/09/17 07:03:00;;;;;;;3.05;2.85;;;;;;;;;;5003519;28;20224;-79
2023/09/17 07:05:27;;;;;;;4.10;3.00;;;;;;;;;;4996815;28;20208;-80
2023/09/17 07:07:55;;;;;;;3.10;2.75;;;;;;;;;;5012138;28;20204;-79
2023/09/17 07:10:22;;;;;;;3.38;3.08;;;;;;;;;;5012672;28;20204;-79
2023/09/17 07:12:50;;;;;;;3.20;2.90;;;;;;;;;;5000453;28;20294;-78
2023/09/17 07:15:20;;;;;;;3.20;2.90;;;;;;;;;;4988302;28;20279;-81
2023/09/17 07:17:47;;;;;;;3.47;2.70;;;;;;;;;;5013551;28;20682;-79
2023/09/17 07:20:15;;;;;;;2.97;2.60;;;;;;;;;;5007135;28;20228;-79
2023/09/17 07:22:42;;;;;;;2.85;2.45;;;;;;;;;;5012597;28;20227;-80
2023/09/17 07:25:09;;;;;;;3.72;2.90;;;;;;;;;;5005759;28;20577;-82
2023/09/17 07:27:37;;;;;;;2.78;2.38;;;;;;;;;;5009555;28;20603;-79
2023/09/17 07:30:05;;;;;;;2.72;2.38;;;;;;;;;;5013308;28;20270;-81
2023/09/17 07:32:32;;;;;;;3.60;2.90;;;;;;;;;;4995136;28;20310;-81
2023/09/17 07:35:02;;;;;;;4.28;2.50;;;;;;;;;;4998832;28;20784;-81
2023/09/17 07:37:29;;;;;;;5.07;2.63;;;;;;;;;;5008226;28;20207;-80
2023/09/17 07:40:16;;;;;;;3.45;2.60;;;;;;;;;;5013029;28;20249;-81
2023/09/17 07:42:44;;;;;;;2.60;2.40;;;;;;;;;;5010443;28;20611;-81
2023/09/17 07:45:13;;;;;;;3.45;2.78;;;;;;;;;;5019118;28;20208;-81
2023/09/17 07:47:40;;;;;;;4.53;2.42;;;;;;;;;;5015114;28;20211;-81
2023/09/17 07:50:09;;;;;;;2.30;2.10;;;;;;;;;;4998625;28;20215;-80
2023/09/17 07:52:37;;;;;;;3.25;2.50;;;;;;;;;;4999394;28;20231;-79
2023/09/17 07:55:06;;;;;;;3.25;2.08;;;;;;;;;;4991039;28;20679;-81
2023/09/17 07:57:33;;;;;;;2.75;2.45;;;;;;;;;;5011989;28;20207;-80
2023/09/17 08:00:00;;;;;;;3.63;2.45;;;;;;;;;;5009342;28;20227;-79
2023/09/17 08:02:27;;;;;;;2.65;2.22;;;;;;;;;;5014646;28;20243;-81
2023/09/17 08:04:55;;;;;;;2.60;2.40;;;;;;;;;;4996615;28;20295;-81
2023/09/17 08:07:22;;;;;;;2.65;2.42;;;;;;;;;;5007047;28;20208;-81
2023/09/17 08:09:49;;;;;;;2.63;2.42;;;;;;;;;;5008938;28;20203;-81
2023/09/17 08:12:17;;;;;;;3.70;2.42;;;;;;;;;;5004744;28;20223;-81
2023/09/17 08:14:46;;;;;;;3.08;2.30;;;;;;;;;;5010463;28;20199;-81
2023/09/17 08:17:13;;;;;;;4.05;2.40;;;;;;;;;;5010521;28;20269;-81
2023/09/17 08:19:41;;;;;;;7.55;2.75;;;;;;;;;;5016155;28;20575;-79
2023/09/17 08:22:08;;;;;;;4.40;2.30;;;;;;;;;;5014884;28;20219;-80
2023/09/17 08:24:35;;;;;;;3.80;2.40;;;;;;;;;;5009034;28;20200;-80
2023/09/17 08:27:04;;;;;;;6.82;2.60;;;;;;;;;;5004284;28;20203;-81
2023/09/17 08:29:33;;;;;;;3.42;2.50;;;;;;;;;;5010953;28;20873;-80
2023/09/17 08:32:01;;;;;;;4.35;2.30;;;;;;;;;;5013586;28;20695;-80
2023/09/17 08:34:28;;;;;;;3.88;2.40;;;;;;;;;;4999339;28;20206;-80
2023/09/17 08:36:56;;;;;;;2.70;2.33;;;;;;;;;;5013263;28;20290;-79
2023/09/17 08:39:25;;;;;;;3.70;2.10;;;;;;;;;;5000006;28;20509;-80
2023/09/17 08:41:53;;;;;;;4.25;2.40;;;;;;;;;;5007984;28;20235;-79
2023/09/17 08:44:20;;;;;;;4.78;2.50;;;;;;;;;;5010510;28;20630;-81
2023/09/17 08:46:49;;;;;;;4.18;2.20;;;;;;;;;;5014557;28;20678;-80
2023/09/17 08:49:17;;;;;;;2.55;2.20;;;;;;;;;;5007572;28;20212;-81
2023/09/17 08:51:46;;;;;;;3.55;2.58;;;;;;;;;;5020587;28;20227;-81
2023/09/17 08:54:16;;;;;;;3.65;2.40;;;;;;;;;;5002721;28;20277;-81
2023/09/17 08:56:44;;;;;;;2.63;2.40;;;;;;;;;;4990954;28;20208;-81
2023/09/17 08:59:20;;;;;;;5.05;2.25;;;;;;;;;;5012618;28;20667;-81
2023/09/17 09:01:49;;;;;;;5.43;2.70;;;;;;;;;;5012863;28;20229;-80
2023/09/17 09:04:16;;;;;;;6.07;2.60;;;;;;;;;;4985500;28;20199;-80
2023/09/17 09:06:44;;;;;;;7.45;2.40;;;;;;;;;;5009038;28;20204;-80
2023/09/17 09:09:12;;;;;;;6.82;2.28;;;;;;;;;;5020591;28;20214;-81
2023/09/17 09:11:40;;;;;;;6.70;2.22;;;;;;;;;;4995971;28;20207;-79
2023/09/17 09:14:07;;;;;;;6.03;2.22;;;;;;;;;;5009750;28;20691;-81
2023/09/17 09:16:37;;;;;;;5.70;2.13;;;;;;;;;;4997835;28;20204;-79
2023/09/17 09:19:07;;;;;;;4.30;2.35;;;;;;;;;;5013251;28;20301;-79
2023/09/17 09:21:35;;;;;;;7.40;2.83;;;;;;;;;;5012379;28;20228;-81
2023/09/17 09:24:03;;;;;;;3.65;2.20;;;;;;;;;;5006968;28;20214;-80
2023/09/17 09:26:35;;;;;;;3.15;2.17;;;;;;;;;;5007659;28;20200;-80
2023/09/17 09:29:04;;;;;;;3.92;2.30;;;;;;;;;;5012005;28;20200;-82
2023/09/17 09:31:32;;;;;;;4.18;2.78;;;;;;;;;;4996154;28;20203;-81
2023/09/17 09:33:59;;;;;;;4.28;2.40;;;;;;;;;;5007272;28;20290;-80
2023/09/17 09:36:28;;;;;;;5.78;2.28;;;;;;;;;;4987334;28;20200;-80
2023/09/17 09:38:56;;;;;;;4.63;2.20;;;;;;;;;;4993875;28;20215;-80
2023/09/17 09:41:29;;;;;;;4.88;2.35;;;;;;;;;;5011129;28;20274;-80
2023/09/17 09:43:57;;;;;;;5.45;2.25;;;;;;;;;;5012023;28;20212;-81
2023/09/17 09:46:25;;;;;;;5.15;2.17;;;;;;;;;;5013283;28;20248;-80
2023/09/17 09:48:52;;;;;;;6.70;3.03;;;;;;;;;;5007173;28;20207;-81
2023/09/17 09:51:21;;;;;;;4.07;2.13;;;;;;;;;;5008676;28;20200;-81
2023/09/17 09:53:48;;;;;;;3.35;2.15;;;;;;;;;;4995285;28;20541;-82
2023/09/17 09:56:16;;;;;;;3.28;2.10;;;;;;;;;;4993309;28;20628;-82
2023/09/17 09:58:44;;;;;;;8.52;2.28;;;;;;;;;;4988879;28;20218;-81
2023/09/17 10:01:14;;;;;;;5.32;2.28;;;;;;;;;;5013555;28;20242;-80
2023/09/17 10:03:42;;;;;;;3.38;1.75;;;;;;;;;;5014004;28;20719;-81
2023/09/17 10:06:10;;;;;;;3.88;2.10;;;;;;;;;;4993699;28;20203;-81
2023/09/17 10:08:39;;;;;;;5.72;2.20;;;;;;;;;;5009647;28;20450;-81
2023/09/17 10:11:07;;;;;;;2.75;1.80;;;;;;;;;;5006682;28;20315;-81
2023/09/17 10:13:35;;;;;;;4.07;2.30;;;;;;;;;;5011068;28;20223;-81
2023/09/17 10:16:03;;;;;;;5.78;2.20;;;;;;;;;;5005604;28;20696;-80
2023/09/17 10:18:31;;;;;;;4.78;2.25;;;;;;;;;;5013322;28;20614;-81
2023/09/17 10:21:02;;;;;;;6.07;2.42;;;;;;;;;;5005993;28;20219;-80
2023/09/17 10:23:31;;;;;;;5.93;1.90;;;;;;;;;;5007632;28;20262;-80
2023/09/17 10:25:59;;;;;;;3.88;2.00;;;;;;;;;;5009978;28;20199;-78
2023/09/17 10:28:27;;;;;;;4.88;2.05;;;;;;;;;;5004302;28;20207;-81
2023/09/17 10:30:55;;;;;;;5.10;2.30;;;;;;;;;;5008403;28;20208;-81
2023/09/17 10:33:24;;;;;;;4.70;2.00;;;;;;;;;;4991674;28;20256;-80
2023/09/17 10:35:51;;;;;;;4.20;2.22;;;;;;;;;;5007354;28;20208;-81
2023/09/17 10:38:22;;;;;;;4.05;1.67;;;;;;;;;;5014217;28;20214;-79
2023/09/17 10:40:50;;;;;;;3.53;2.15;;;;;;;;;;4991482;28;20216;-81
2023/09/17 10:43:19;;;;;;;5.03;1.92;;;;;;;;;;5007591;28;20234;-81
2023/09/17 10:45:46;;;;;;;6.07;1.95;;;;;;;;;;5006540;28;20211;-82
2023/09/17 10:48:15;;;;;;;4.47;2.40;;;;;;;;;;5010913;28;20212;-80
2023/09/17 10:50:42;;;;;;;3.72;2.03;;;;;;;;;;5006541;28;20241;-81
2023/09/17 10:53:10;;;;;;;4.57;1.95;;;;;;;;;;5004971;28;20223;-80
2023/09/17 10:55:42;;;;;;;6.13;2.28;;;;;;;;;;5003037;28;20577;-79
2023/09/17 10:58:13;;;;;;;4.75;2.03;;;;;;;;;;5009331;28;20226;-80
2023/09/17 11:00:42;;;;;;;6.55;2.55;;;;;;;;;;4987465;28;20235;-80
2023/09/17 11:03:11;;;;;;;2.25;2.00;;;;;;;;;;5009404;28;20267;-81
2023/09/17 11:05:39;;;;;;;2.45;2.10;;;;;;;;;;5012940;28;20635;-81
2023/09/17 11:08:08;;;;;;;6.47;3.30;;;;;;;;;;4993959;28;20590;-81
2023/09/17 11:10:41;;;;;;;3.20;2.13;;;;;;;;;;4991660;28;20290;-78
2023/09/17 11:13:13;;;;;;;3.72;2.17;;;;;;;;;;5004754;28;20710;-78
2023/09/17 11:15:42;;;;;;;3.83;1.80;;;;;;;;;;5013138;28;20238;-79
2023/09/17 11:18:10;;;;;;;5.50;1.98;;;;;;;;;;5012677;28;20207;-78
2023/09/17 11:20:59;;;;;;;3.40;1.92;;;;;;;;;;5006945;28;20664;-80
2023/09/17 11:23:46;;;;;;;3.67;2.50;;;;;;;;;;5010970;28;20491;-78
2023/09/17 11:26:29;;;;;;;5.80;3.03;;;;;;;;;;5011996;28;20907;-81
2023/09/17 11:28:58;;;;;;;3.65;1.90;;;;;;;;;;5014649;28;20735;-80
2023/09/17 11:31:27;;;;;;;4.72;1.92;;;;;;;;;;5005500;28;20207;-79
2023/09/17 11:33:55;;;;;;;5.55;2.03;;;;;;;;;;5012104;28;20208;-81
2023/09/17 11:36:23;;;;;;;4.05;2.28;;;;;;;;;;5005397;28;20212;-78
2023/09/17 11:38:50;;;;;;;5.13;2.17;;;;;;;;;;4996959;28;20214;-80
2023/09/17 11:41:28;;;;;;;3.55;2.22;;;;;;;;;;5006814;28;20313;-81
2023/09/17 11:43:55;;;;;;;4.18;2.05;;;;;;;;;;4992391;28;20214;-78
2023/09/17 11:46:23;;;;;;;4.32;1.98;;;;;;;;;;5010129;28;20199;-79
2023/09/17 11:48:50;;;;;;;2.75;2.25;;;;;;;;;;5014251;28;20616;-81
2023/09/17 11:51:21;;;;;;;2.83;1.92;;;;;;;;;;5014916;28;20211;-80
2023/09/17 11:53:51;;;;;;;3.15;2.30;;;;;;;;;;5010468;28;20687;-79
2023/09/17 11:56:19;;;;;;;2.95;2.00;;;;;;;;;;5010877;28;20215;-78
2023/09/17 11:58:56;;;;;;;3.28;1.85;;;;;;;;;;5008757;28;20218;-79
2023/09/17 12:01:25;;;;;;;6.00;2.25;;;;;;;;;;5007210;28;20829;-81
2023/09/17 12:03:54;;;;;;;2.50;1.92;;;;;;;;;;4997143;28;20261;-79
2023/09/17 12:06:21;;;;;;;4.40;2.03;;;;;;;;;;4992254;28;20254;-77
2023/09/17 12:08:49;;;;;;;3.08;1.98;;;;;;;;;;5010408;28;20558;-80
2023/09/17 12:11:22;;;;;;;4.97;2.10;;;;;;;;;;4999527;28;20207;-80
2023/09/17 12:13:53;;;;;;;4.32;2.22;;;;;;;;;;5006475;28;20231;-78
2023/09/17 12:16:24;;;;;;;3.22;1.90;;;;;;;;;;5015632;28;20261;-79
2023/09/17 12:18:52;;;;;;;2.70;2.03;;;;;;;;;;5008255;28;20208;-79
2023/09/17 12:21:40;;;;;;;4.30;1.80;;;;;;;;;;4992307;28;20285;-78
2023/09/17 12:24:18;;;;;;;2.95;1.83;;;;;;;;;;5007356;28;20235;-79
2023/09/17 12:27:34;;;;;;;3.08;1.88;;;;;;;;;;5006344;28;20207;-79
2023/09/17 12:30:05;;;;;;;3.40;2.10;;;;;;;;;;5004151;28;20682;-79
2023/09/17 12:32:34;;;;;;;3.05;1.70;;;;;;;;;;4996293;28;20254;-79
2023/09/17 12:35:03;;;;;;;3.65;2.10;;;;;;;;;;4996451;28;20214;-80
2023/09/17 12:37:30;;;;;;;5.80;2.00;;;;;;;;;;5000879;28;20251;-76
2023/09/17 12:39:57;;;;;;;3.75;1.92;;;;;;;;;;5013049;28;20677;-79
2023/09/17 12:42:25;;;;;;;3.35;1.90;;;;;;;;;;5009727;28;20231;-80
2023/09/17 12:44:53;;;;;;;2.13;1.80;;;;;;;;;;4990841;28;20268;-80
2023/09/17 12:47:23;;;;;;;3.80;2.00;;;;;;;;;;5012989;28;20217;-80
2023/09/17 12:49:53;;;;;;;5.35;1.90;;;;;;;;;;5014857;28;20218;-79
2023/09/17 12:52:20;;;;;;;2.72;1.90;;;;;;;;;;5006785;28;20231;-79
2023/09/17 12:54:48;;;;;;;2.83;1.77;;;;;;;;;;5010894;28;20200;-79
2023/09/17 12:57:15;;;;;;;2.00;1.73;;;;;;;;;;5007278;28;20212;-80
2023/09/17 12:59:45;;;;;;;5.57;1.90;;;;;;;;;;5002058;28;20216;-80
2023/09/17 13:02:13;;;;;;;3.42;1.60;;;;;;;;;;4994676;28;20238;-79
2023/09/17 13:04:44;;;;;;;3.45;1.70;;;;;;;;;;5008090;28;20204;-79
2023/09/17 13:07:14;;;;;;;2.60;1.67;;;;;;;;;;5008973;28;20585;-80
2023/09/17 13:09:42;;;;;;;3.25;1.83;;;;;;;;;;5002337;28;20204;-80
2023/09/17 13:12:10;;;;;;;2.25;1.50;;;;;;;;;;5007203;28;20682;-80
2023/09/17 13:14:38;;;;;;;3.20;2.00;;;;;;;;;;5011917;28;20679;-79
2023/09/17 13:17:05;;;;;;;4.38;1.88;;;;;;;;;;5011531;28;20235;-80
2023/09/17 13:19:33;;;;;;;2.08;1.65;;;;;;;;;;5001175;28;20209;-81
2023/09/17 13:22:00;;;;;;;2.92;2.00;;;;;;;;;;4987388;28;20263;-80
2023/09/17 13:24:28;;;;;;;2.95;1.85;;;;;;;;;;5008263;28;20208;-79
2023/09/17 13:26:59;;;;;;;2.47;1.60;;;;;;;;;;5009053;28;20206;-80
2023/09/17 13:29:37;;;;;;;2.80;1.92;;;;;;;;;;5006068;28;20219;-79
2023/09/17 13:32:09;;;;;;;4.20;1.92;;;;;;;;;;5012044;28;21785;-79
2023/09/17 13:34:38;;;;;;;3.97;2.10;;;;;;;;;;5001588;28;20212;-76
2023/09/17 13:37:06;;;;;;;3.88;1.77;;;;;;;;;;5012750;28;20307;-77
2023/09/17 13:39:33;;;;;;;3.85;1.73;;;;;;;;;;5006847;28;20224;-78
2023/09/17 13:42:00;;;;;;;2.25;1.60;;;;;;;;;;5010278;28;20285;-80
2023/09/17 13:44:27;;;;;;;3.08;1.90;;;;;;;;;;5004423;28;20214;-79
2023/09/17 13:46:55;;;;;;;3.97;2.10;;;;;;;;;;5010482;28;20199;-81
2023/09/17 13:49:23;;;;;;;3.15;1.80;;;;;;;;;;4994489;28;20593;-80
2023/09/17 13:51:50;;;;;;;2.50;2.05;;;;;;;;;;5012238;28;20693;-79
2023/09/17 13:54:18;;;;;;;3.60;1.73;;;;;;;;;;5008091;28;20210;-79
2023/09/17 13:56:45;;;;;;;5.32;1.70;;;;;;;;;;5005148;28;20295;-79
2023/09/17 13:59:13;;;;;;;2.55;1.80;;;;;;;;;;5007793;28;20208;-79
2023/09/17 14:01:40;;;;;;;2.10;1.90;;;;;;;;;;5005719;28;20220;-77
2023/09/17 14:04:08;;;;;;;2.75;1.70;;;;;;;;;;5007753;28;20323;-81
2023/09/17 14:06:35;;;;;;;3.50;1.80;;;;;;;;;;4994876;28;20643;-80
2023/09/17 14:09:03;;;;;;;2.53;2.03;;;;;;;;;;5007999;28;20566;-80
2023/09/17 14:11:31;;;;;;;4.93;1.80;;;;;;;;;;5007818;28;20345;-78
2023/09/17 14:13:59;;;;;;;3.70;1.90;;;;;;;;;;5004293;28;20673;-80
2023/09/17 14:16:26;;;;;;;2.15;1.83;;;;;;;;;;5008123;28;20671;-81
2023/09/17 14:18:54;;;;;;;2.28;1.80;;;;;;;;;;5010464;28;20209;-81
2023/09/17 14:21:21;;;;;;;2.45;1.90;;;;;;;;;;4993650;28;20647;-80
2023/09/17 14:23:48;;;;;;;2.67;1.70;;;;;;;;;;5006226;28;20229;-80
2023/09/17 14:26:15;;;;;;;3.22;1.63;;;;;;;;;;5004663;28;20245;-78
2023/09/17 14:28:43;;;;;;;1.92;1.70;;;;;;;;;;5005641;28;20199;-80
2023/09/17 14:31:11;;;;;;;2.33;1.83;;;;;;;;;;5006379;28;20824;-77
2023/09/17 14:33:39;;;;;;;3.45;2.03;;;;;;;;;;5004168;28;20251;-80
2023/09/17 14:36:08;;;;;;;1.70;1.60;;;;;;;;;;5008148;28;20668;-78
2023/09/17 14:38:35;;;;;;;2.58;1.77;;;;;;;;;;4994232;28;20203;-79
2023/09/17 14:41:02;;;;;;;3.22;2.00;;;;;;;;;;5002568;28;20203;-80
2023/09/17 14:43:30;;;;;;;3.17;1.60;;;;;;;;;;5011199;28;20238;-79
2023/09/17 14:45:58;;;;;;;3.22;1.80;;;;;;;;;;5006713;28;20204;-77
2023/09/17 14:48:28;;;;;;;3.85;2.00;;;;;;;;;;5005326;28;20737;-79
2023/09/17 14:50:55;;;;;;;4.30;1.90;;;;;;;;;;4995505;28;20217;-79
2023/09/17 14:53:23;;;;;;;5.20;2.10;;;;;;;;;;5015272;28;20227;-80